sensor_id;sensor_type;location;lat;lon;timestamp;pressure;altitude;pressure_sealevel;temperature;humidity
28628;BME280;15815;46.760;19.604;2023-09-30T00:01:09;100826.16;;;14.71;81.85
28628;BME280;15815;46.760;19.604;2023-09-30T00:03:36;100823.00;;;14.65;82.08
28628;BME280;15815;46.760;19.604;2023-09-30T00:06:02;100828.56;;;14.72;82.17
28628;BME280;15815;46.760;19.604;2023-09-30T00:08:30;100840.06;;;14.58;83.00
28628;BME280;15815;46.760;19.604;2023-09-30T00:10:55;100831.22;;;14.52;82.16
28628;BME280;15815;46.760;19.604;2023-09-30T00:13:23;100830.25;;;14.66;82.97
28628;BME280;15815;46.760;19.604;2023-09-30T00:15:54;100833.03;;;14.70;82.93
28628;BME280;15815;46.760;19.604;2023-09-30T00:18:19;100794.13;;;14.43;82.24
28628;BME280;15815;46.760;19.604;2023-09-30T00:20:45;100798.19;;;14.39;82.26
28628;BME280;15815;46.760;19.604;2023-09-30T00:23:10;100798.19;;;14.39;83.59
28628;BME280;15815;46.760;19.604;2023-09-30T00:25:36;100812.19;;;14.57;84.12
28628;BME280;15815;46.760;19.604;2023-09-30T00:28:02;100792.56;;;14.35;81.86
28628;BME280;15815;46.760;19.604;2023-09-30T00:30:27;100815.81;;;14.57;83.76
28628;BME280;15815;46.760;19.604;2023-09-30T00:32:54;100808.97;;;14.55;83.98
28628;BME280;15815;46.760;19.604;2023-09-30T00:35:19;100805.47;;;14.36;82.76
28628;BME280;15815;46.760;19.604;2023-09-30T00:37:45;100797.47;;;14.31;84.06
28628;BME280;15815;46.760;19.604;2023-09-30T00:40:11;100804.28;;;14.34;83.71
28628;BME280;15815;46.760;19.604;2023-09-30T00:42:37;100790.97;;;14.34;82.89
28628;BME280;15815;46.760;19.604;2023-09-30T00:45:03;100804.69;;;14.36;83.34
28628;BME280;15815;46.760;19.604;2023-09-30T00:47:29;100776.94;;;14.20;84.09
28628;BME280;15815;46.760;19.604;2023-09-30T00:49:54;100801.47;;;14.34;83.76
28628;BME280;15815;46.760;19.604;2023-09-30T00:52:20;100797.91;;;14.26;82.94
28628;BME280;15815;46.760;19.604;2023-09-30T00:54:46;100795.16;;;14.15;83.36
28628;BME280;15815;46.760;19.604;2023-09-30T00:57:13;100803.06;;;14.35;84.24
28628;BME280;15815;46.760;19.604;2023-09-30T00:59:38;100799.41;;;14.38;84.05
28628;BME280;15815;46.760;19.604;2023-09-30T01:02:04;100792.41;;;14.08;82.57
28628;BME280;15815;46.760;19.604;2023-09-30T01:04:32;100799.25;;;14.11;83.26
28628;BME280;15815;46.760;19.604;2023-09-30T01:06:57;100783.22;;;13.93;83.33
28628;BME280;15815;46.760;19.604;2023-09-30T01:09:23;100776.03;;;13.85;83.96
28628;BME280;15815;46.760;19.604;2023-09-30T01:11:50;100788.03;;;14.00;84.08
28628;BME280;15815;46.760;19.604;2023-09-30T01:14:30;100798.91;;;14.05;82.88
28628;BME280;15815;46.760;19.604;2023-09-30T01:16:56;100795.34;;;13.98;83.60
28628;BME280;15815;46.760;19.604;2023-09-30T01:19:25;100793.72;;;13.93;83.19
28628;BME280;15815;46.760;19.604;2023-09-30T01:21:57;100795.44;;;13.83;83.84
28628;BME280;15815;46.760;19.604;2023-09-30T01:24:23;100796.13;;;13.95;84.15
28628;BME280;15815;46.760;19.604;2023-09-30T01:26:50;100804.97;;;14.04;84.70
28628;BME280;15815;46.760;19.604;2023-09-30T01:29:15;100801.31;;;14.07;84.85
28628;BME280;15815;46.760;19.604;2023-09-30T01:31:41;100783.00;;;13.74;83.38
28628;BME280;15815;46.760;19.604;2023-09-30T01:34:06;100799.16;;;13.73;84.26
28628;BME280;15815;46.760;19.604;2023-09-30T01:36:32;100815.59;;;13.85;84.32
28628;BME280;15815;46.760;19.604;2023-09-30T01:38:57;100810.34;;;13.87;84.82
28628;BME280;15815;46.760;19.604;2023-09-30T01:41:23;100798.31;;;13.76;83.57
28628;BME280;15815;46.760;19.604;2023-09-30T01:43:49;100811.59;;;13.83;83.39
28628;BME280;15815;46.760;19.604;2023-09-30T01:46:14;100812.38;;;13.83;84.54
28628;BME280;15815;46.760;19.604;2023-09-30T01:48:40;100807.16;;;13.82;84.06
28628;BME280;15815;46.760;19.604;2023-09-30T01:51:06;100784.22;;;13.73;84.53
28628;BME280;15815;46.760;19.604;2023-09-30T01:53:32;100799.19;;;13.70;85.21
28628;BME280;15815;46.760;19.604;2023-09-30T01:56:00;100788.28;;;13.68;84.79
28628;BME280;15815;46.760;19.604;2023-09-30T01:58:25;100804.81;;;13.73;85.19
28628;BME280;15815;46.760;19.604;2023-09-30T02:00:52;100786.66;;;13.71;85.50
28628;BME280;15815;46.760;19.604;2023-09-30T02:03:18;100797.09;;;13.77;85.40
28628;BME280;15815;46.760;19.604;2023-09-30T02:05:44;100790.72;;;13.70;85.42
28628;BME280;15815;46.760;19.604;2023-09-30T02:08:10;100790.38;;;13.57;85.51
28628;BME280;15815;46.760;19.604;2023-09-30T02:10:36;100798.75;;;13.68;85.63
28628;BME280;15815;46.760;19.604;2023-09-30T02:13:02;100781.19;;;13.46;85.30
28628;BME280;15815;46.760;19.604;2023-09-30T02:15:27;100793.97;;;13.61;85.37
28628;BME280;15815;46.760;19.604;2023-09-30T02:17:53;100789.09;;;13.65;85.24
28628;BME280;15815;46.760;19.604;2023-09-30T02:20:19;100772.66;;;13.53;85.70
28628;BME280;15815;46.760;19.604;2023-09-30T02:22:45;100791.25;;;13.47;84.90
28628;BME280;15815;46.760;19.604;2023-09-30T02:25:12;100798.94;;;13.43;84.87
28628;BME280;15815;46.760;19.604;2023-09-30T02:27:39;100794.06;;;13.50;85.89
28628;BME280;15815;46.760;19.604;2023-09-30T02:30:11;100799.72;;;13.47;86.98
28628;BME280;15815;46.760;19.604;2023-09-30T02:32:39;100799.72;;;13.47;86.15
28628;BME280;15815;46.760;19.604;2023-09-30T02:35:04;100774.81;;;13.27;85.30
28628;BME280;15815;46.760;19.604;2023-09-30T02:37:32;100800.19;;;13.35;85.77
28628;BME280;15815;46.760;19.604;2023-09-30T02:39:58;100800.56;;;13.37;85.91
28628;BME280;15815;46.760;19.604;2023-09-30T02:42:24;100779.66;;;13.30;86.40
28628;BME280;15815;46.760;19.604;2023-09-30T02:44:50;100797.03;;;13.25;85.30
28628;BME280;15815;46.760;19.604;2023-09-30T02:47:15;100801.44;;;13.26;85.47
28628;BME280;15815;46.760;19.604;2023-09-30T02:49:41;100795.41;;;13.24;85.86
28628;BME280;15815;46.760;19.604;2023-09-30T02:52:06;100784.91;;;13.28;86.63
28628;BME280;15815;46.760;19.604;2023-09-30T02:54:32;100788.91;;;13.35;85.93
28628;BME280;15815;46.760;19.604;2023-09-30T02:56:57;100764.41;;;13.07;85.94
28628;BME280;15815;46.760;19.604;2023-09-30T02:59:25;100790.16;;;13.26;85.46
28628;BME280;15815;46.760;19.604;2023-09-30T03:01:51;100797.88;;;13.19;84.69
28628;BME280;15815;46.760;19.604;2023-09-30T03:04:16;100776.88;;;13.13;85.72
28628;BME280;15815;46.760;19.604;2023-09-30T03:06:42;100798.25;;;13.24;85.36
28628;BME280;15815;46.760;19.604;2023-09-30T03:09:07;100803.88;;;13.24;86.56
28628;BME280;15815;46.760;19.604;2023-09-30T03:11:33;100782.16;;;13.18;86.93
28628;BME280;15815;46.760;19.604;2023-09-30T03:14:07;100784.56;;;13.19;86.78
28628;BME280;15815;46.760;19.604;2023-09-30T03:16:34;100785.34;;;13.23;86.82
28628;BME280;15815;46.760;19.604;2023-09-30T03:18:59;100794.19;;;13.29;86.32
28628;BME280;15815;46.760;19.604;2023-09-30T03:21:25;100790.19;;;13.12;85.77
28628;BME280;15815;46.760;19.604;2023-09-30T03:23:51;100792.63;;;13.07;85.61
28628;BME280;15815;46.760;19.604;2023-09-30T03:26:17;100791.81;;;13.17;86.27
28628;BME280;15815;46.760;19.604;2023-09-30T03:28:42;100792.25;;;13.01;85.79
28628;BME280;15815;46.760;19.604;2023-09-30T03:31:08;100792.72;;;12.89;85.89
28628;BME280;15815;46.760;19.604;2023-09-30T03:33:35;100784.69;;;12.77;85.84
28628;BME280;15815;46.760;19.604;2023-09-30T03:36:00;100797.94;;;12.94;86.26
28628;BME280;15815;46.760;19.604;2023-09-30T03:38:26;100796.72;;;12.95;86.46
28628;BME280;15815;46.760;19.604;2023-09-30T03:40:52;100791.09;;;12.95;86.64
28628;BME280;15815;46.760;19.604;2023-09-30T03:43:17;100767.00;;;12.73;85.67
28628;BME280;15815;46.760;19.604;2023-09-30T03:45:43;100790.34;;;12.77;86.07
28628;BME280;15815;46.760;19.604;2023-09-30T03:48:08;100779.06;;;12.77;86.69
28628;BME280;15815;46.760;19.604;2023-09-30T03:50:34;100786.66;;;12.87;86.68
28628;BME280;15815;46.760;19.604;2023-09-30T03:53:03;100784.69;;;12.77;86.17
28628;BME280;15815;46.760;19.604;2023-09-30T03:55:29;100783.94;;;12.69;85.88
28628;BME280;15815;46.760;19.604;2023-09-30T03:57:55;100778.28;;;12.69;86.99
28628;BME280;15815;46.760;19.604;2023-09-30T04:00:20;100784.75;;;12.62;86.39
28628;BME280;15815;46.760;19.604;2023-09-30T04:02:46;100790.41;;;12.62;86.03
28628;BME280;15815;46.760;19.604;2023-09-30T04:05:12;100780.72;;;12.60;86.68
28628;BME280;15815;46.760;19.604;2023-09-30T04:07:37;100779.13;;;12.62;86.55
28628;BME280;15815;46.760;19.604;2023-09-30T04:10:03;100797.63;;;12.71;87.58
28628;BME280;15815;46.760;19.604;2023-09-30T04:12:28;100769.47;;;12.46;86.29
28628;BME280;15815;46.760;19.604;2023-09-30T04:14:54;100778.34;;;12.44;87.15
28628;BME280;15815;46.760;19.604;2023-09-30T04:17:19;100787.19;;;12.50;87.64
28628;BME280;15815;46.760;19.604;2023-09-30T04:19:46;100793.59;;;12.57;86.86
28628;BME280;15815;46.760;19.604;2023-09-30T04:22:12;100796.88;;;12.42;86.49
28628;BME280;15815;46.760;19.604;2023-09-30T04:24:37;100800.84;;;12.58;87.28
28628;BME280;15815;46.760;19.604;2023-09-30T04:27:03;100799.25;;;12.57;86.98
28628;BME280;15815;46.760;19.604;2023-09-30T04:29:29;100804.09;;;12.60;88.37
28628;BME280;15815;46.760;19.604;2023-09-30T04:31:56;100790.44;;;12.45;86.59
28628;BME280;15815;46.760;19.604;2023-09-30T04:34:22;100790.03;;;12.46;87.26
28628;BME280;15815;46.760;19.604;2023-09-30T04:36:51;100790.03;;;12.46;87.71
28628;BME280;15815;46.760;19.604;2023-09-30T04:39:16;100807.31;;;12.55;86.72
28628;BME280;15815;46.760;19.604;2023-09-30T04:41:43;100801.72;;;12.41;87.26
28628;BME280;15815;46.760;19.604;2023-09-30T04:44:08;100816.19;;;12.50;87.83
28628;BME280;15815;46.760;19.604;2023-09-30T04:46:34;100815.81;;;12.45;87.33
28628;BME280;15815;46.760;19.604;2023-09-30T04:49:00;100806.56;;;12.37;87.36
28628;BME280;15815;46.760;19.604;2023-09-30T04:51:25;100812.19;;;12.44;88.26
28628;BME280;15815;46.760;19.604;2023-09-30T04:53:51;100812.19;;;12.44;86.75
28628;BME280;15815;46.760;19.604;2023-09-30T04:56:18;100815.38;;;12.50;87.77
28628;BME280;15815;46.760;19.604;2023-09-30T04:58:44;100815.00;;;12.44;87.06
28628;BME280;15815;46.760;19.604;2023-09-30T05:01:09;100822.22;;;12.52;86.97
28628;BME280;15815;46.760;19.604;2023-09-30T05:03:35;100821.03;;;12.46;86.80
28628;BME280;15815;46.760;19.604;2023-09-30T05:06:00;100826.25;;;12.51;87.57
28628;BME280;15815;46.760;19.604;2023-09-30T05:08:28;100797.69;;;12.42;88.18
28628;BME280;15815;46.760;19.604;2023-09-30T05:10:53;100829.84;;;12.73;87.27
28628;BME280;15815;46.760;19.604;2023-09-30T05:13:20;100834.66;;;12.76;87.52
28628;BME280;15815;46.760;19.604;2023-09-30T05:15:46;100803.72;;;12.48;86.70
28628;BME280;15815;46.760;19.604;2023-09-30T05:18:12;100819.00;;;12.64;87.32
28628;BME280;15815;46.760;19.604;2023-09-30T05:20:38;100826.63;;;12.67;87.72
28628;BME280;15815;46.760;19.604;2023-09-30T05:23:05;100808.06;;;12.77;87.83
28628;BME280;15815;46.760;19.604;2023-09-30T05:25:31;100833.03;;;12.89;86.76
28628;BME280;15815;46.760;19.604;2023-09-30T05:27:57;100845.06;;;13.00;88.30
28628;BME280;15815;46.760;19.604;2023-09-30T05:30:23;100840.59;;;13.10;87.28
28628;BME280;15815;46.760;19.604;2023-09-30T05:32:48;100846.66;;;13.19;87.13
28628;BME280;15815;46.760;19.604;2023-09-30T05:35:14;100828.13;;;13.18;87.83
28628;BME280;15815;46.760;19.604;2023-09-30T05:37:43;100858.22;;;13.50;86.92
28628;BME280;15815;46.760;19.604;2023-09-30T05:40:09;100856.94;;;13.58;86.96
28628;BME280;15815;46.760;19.604;2023-09-30T05:42:39;100848.84;;;13.64;87.64
28628;BME280;15815;46.760;19.604;2023-09-30T05:45:04;100863.94;;;14.02;88.06
28628;BME280;15815;46.760;19.604;2023-09-30T05:47:30;100860.63;;;14.10;88.69
28628;BME280;15815;46.760;19.604;2023-09-30T05:49:56;100850.09;;;14.14;88.75
28628;BME280;15815;46.760;19.604;2023-09-30T05:52:22;100847.50;;;14.34;89.08
28628;BME280;15815;46.760;19.604;2023-09-30T05:54:48;100858.66;;;14.56;88.64
28628;BME280;15815;46.760;19.604;2023-09-30T05:57:14;100855.25;;;14.71;88.24
28628;BME280;15815;46.760;19.604;2023-09-30T05:59:40;100878.59;;;14.82;89.12
28628;BME280;15815;46.760;19.604;2023-09-30T06:02:05;100866.03;;;15.21;87.83
28628;BME280;15815;46.760;19.604;2023-09-30T06:04:31;100871.59;;;15.62;88.92
28628;BME280;15815;46.760;19.604;2023-09-30T06:06:56;100878.22;;;16.56;88.61
28628;BME280;15815;46.760;19.604;2023-09-30T06:09:22;100881.69;;;17.50;86.47
28628;BME280;15815;46.760;19.604;2023-09-30T06:11:47;100865.94;;;18.34;88.61
28628;BME280;15815;46.760;19.604;2023-09-30T06:14:13;100876.72;;;18.92;83.63
28628;BME280;15815;46.760;19.604;2023-09-30T06:16:38;100886.81;;;19.51;84.95
28628;BME280;15815;46.760;19.604;2023-09-30T06:19:04;100871.16;;;19.84;81.79
28628;BME280;15815;46.760;19.604;2023-09-30T06:21:29;100873.41;;;21.00;86.82
28628;BME280;15815;46.760;19.604;2023-09-30T06:23:55;100864.50;;;21.20;83.72
28628;BME280;15815;46.760;19.604;2023-09-30T06:26:21;100878.72;;;21.76;82.94
28628;BME280;15815;46.760;19.604;2023-09-30T06:28:46;100863.56;;;22.38;78.57
28628;BME280;15815;46.760;19.604;2023-09-30T06:31:15;100877.19;;;23.47;86.43
28628;BME280;15815;46.760;19.604;2023-09-30T06:33:40;100863.63;;;24.17;81.84
28628;BME280;15815;46.760;19.604;2023-09-30T06:36:11;100876.94;;;24.62;79.54
28628;BME280;15815;46.760;19.604;2023-09-30T06:38:37;100876.63;;;24.84;75.23
28628;BME280;15815;46.760;19.604;2023-09-30T06:41:03;100879.66;;;25.29;82.12
28628;BME280;15815;46.760;19.604;2023-09-30T06:43:29;100886.19;;;24.90;66.38
28628;BME280;15815;46.760;19.604;2023-09-30T06:45:54;100885.25;;;25.62;66.46
28628;BME280;15815;46.760;19.604;2023-09-30T06:48:21;100881.75;;;26.31;76.30
28628;BME280;15815;46.760;19.604;2023-09-30T06:50:48;100886.78;;;27.32;78.98
28628;BME280;15815;46.760;19.604;2023-09-30T06:53:14;100893.03;;;28.03;76.89
28628;BME280;15815;46.760;19.604;2023-09-30T06:55:40;100899.13;;;28.42;70.91
28628;BME280;15815;46.760;19.604;2023-09-30T06:58:06;100892.34;;;28.99;74.20
28628;BME280;15815;46.760;19.604;2023-09-30T07:00:31;100893.34;;;28.42;65.69
28628;BME280;15815;46.760;19.604;2023-09-30T07:02:59;100892.81;;;28.12;62.22
28628;BME280;15815;46.760;19.604;2023-09-30T07:05:24;100900.47;;;27.37;58.37
28628;BME280;15815;46.760;19.604;2023-09-30T07:07:50;100903.63;;;27.60;66.29
28628;BME280;15815;46.760;19.604;2023-09-30T07:10:15;100904.63;;;28.40;61.62
28628;BME280;15815;46.760;19.604;2023-09-30T07:12:41;100904.06;;;28.05;63.47
28628;BME280;15815;46.760;19.604;2023-09-30T07:15:07;100900.63;;;28.75;52.58
28628;BME280;15815;46.760;19.604;2023-09-30T07:17:33;100904.81;;;29.22;61.53
28628;BME280;15815;46.760;19.604;2023-09-30T07:19:59;100905.72;;;30.79;55.56
28628;BME280;15815;46.760;19.604;2023-09-30T07:22:24;100897.50;;;30.89;55.99
28628;BME280;15815;46.760;19.604;2023-09-30T07:24:50;100911.28;;;30.71;60.60
28628;BME280;15815;46.760;19.604;2023-09-30T07:27:16;100918.34;;;30.87;51.98
28628;BME280;15815;46.760;19.604;2023-09-30T07:29:44;100914.56;;;32.38;57.99
28628;BME280;15815;46.760;19.604;2023-09-30T07:32:09;100922.91;;;33.45;54.04
28628;BME280;15815;46.760;19.604;2023-09-30T07:34:35;100908.22;;;33.88;57.50
28628;BME280;15815;46.760;19.604;2023-09-30T07:37:00;100924.66;;;34.04;58.90
28628;BME280;15815;46.760;19.604;2023-09-30T07:39:26;100928.69;;;34.01;56.32
28628;BME280;15815;46.760;19.604;2023-09-30T07:41:52;100925.44;;;34.50;55.23
28628;BME280;15815;46.760;19.604;2023-09-30T07:44:20;100926.66;;;32.97;46.62
28628;BME280;15815;46.760;19.604;2023-09-30T07:46:45;100928.13;;;32.84;54.05
28628;BME280;15815;46.760;19.604;2023-09-30T07:49:11;100935.63;;;33.42;48.91
28628;BME280;15815;46.760;19.604;2023-09-30T07:51:36;100938.75;;;35.04;49.23
28628;BME280;15815;46.760;19.604;2023-09-30T07:54:03;100943.56;;;35.88;48.25
28628;BME280;15815;46.760;19.604;2023-09-30T07:56:31;100944.66;;;35.65;49.51
28628;BME280;15815;46.760;19.604;2023-09-30T07:58:57;100941.03;;;34.85;40.33
28628;BME280;15815;46.760;19.604;2023-09-30T08:01:22;100940.78;;;35.22;41.90
28628;BME280;15815;46.760;19.604;2023-09-30T08:03:48;100947.53;;;36.12;47.25
28628;BME280;15815;46.760;19.604;2023-09-30T08:06:13;100952.22;;;36.98;44.07
28628;BME280;15815;46.760;19.604;2023-09-30T08:08:39;100956.16;;;37.81;43.97
28628;BME280;15815;46.760;19.604;2023-09-30T08:11:05;100940.22;;;37.61;33.62
28628;BME280;15815;46.760;19.604;2023-09-30T08:13:31;100957.59;;;36.66;39.35
28628;BME280;15815;46.760;19.604;2023-09-30T08:15:57;100952.94;;;37.63;42.00
28628;BME280;15815;46.760;19.604;2023-09-30T08:18:23;100947.44;;;38.26;36.65
28628;BME280;15815;46.760;19.604;2023-09-30T08:20:48;100950.97;;;38.78;38.42
28628;BME280;15815;46.760;19.604;2023-09-30T08:23:14;100951.78;;;38.71;35.09
28628;BME280;15815;46.760;19.604;2023-09-30T08:25:39;100947.56;;;39.28;35.07
28628;BME280;15815;46.760;19.604;2023-09-30T08:28:05;100957.06;;;37.68;29.37
28628;BME280;15815;46.760;19.604;2023-09-30T08:30:32;100955.28;;;38.47;35.20
28628;BME280;15815;46.760;19.604;2023-09-30T08:32:59;100943.16;;;39.44;33.33
28628;BME280;15815;46.760;19.604;2023-09-30T08:35:25;100937.84;;;40.23;34.46
28628;BME280;15815;46.760;19.604;2023-09-30T08:37:50;100938.81;;;39.93;33.74
28628;BME280;15815;46.760;19.604;2023-09-30T08:40:22;100944.34;;;40.21;29.94
28628;BME280;15815;46.760;19.604;2023-09-30T08:42:52;100944.72;;;40.50;32.10
28628;BME280;15815;46.760;19.604;2023-09-30T08:45:18;100946.03;;;40.32;31.85
28628;BME280;15815;46.760;19.604;2023-09-30T08:47:45;100938.53;;;40.63;30.91
28628;BME280;15815;46.760;19.604;2023-09-30T08:50:13;100935.03;;;40.32;28.43
28628;BME280;15815;46.760;19.604;2023-09-30T08:52:40;100938.56;;;40.81;30.12
28628;BME280;15815;46.760;19.604;2023-09-30T08:55:09;100934.22;;;41.51;30.11
28628;BME280;15815;46.760;19.604;2023-09-30T08:57:41;100945.81;;;40.62;28.88
28628;BME280;15815;46.760;19.604;2023-09-30T09:00:10;100927.03;;;40.00;30.15
28628;BME280;15815;46.760;19.604;2023-09-30T09:02:37;100934.41;;;41.35;28.67
28628;BME280;15815;46.760;19.604;2023-09-30T09:05:03;100935.47;;;41.65;29.81
28628;BME280;15815;46.760;19.604;2023-09-30T09:07:28;100947.16;;;40.86;29.17
28628;BME280;15815;46.760;19.604;2023-09-30T09:10:07;100932.34;;;39.62;28.05
28628;BME280;15815;46.760;19.604;2023-09-30T09:12:35;100913.75;;;38.58;29.92
28628;BME280;15815;46.760;19.604;2023-09-30T09:15:01;100928.63;;;38.14;29.04
28628;BME280;15815;46.760;19.604;2023-09-30T09:17:44;100920.72;;;37.71;28.88
28628;BME280;15815;46.760;19.604;2023-09-30T09:20:16;100925.66;;;37.99;30.61
28628;BME280;15815;46.760;19.604;2023-09-30T09:22:44;100925.31;;;37.51;30.58
28628;BME280;15815;46.760;19.604;2023-09-30T09:25:10;100921.06;;;37.67;31.39
28628;BME280;15815;46.760;19.604;2023-09-30T09:27:37;100923.31;;;37.82;31.19
28628;BME280;15815;46.760;19.604;2023-09-30T09:30:20;100908.28;;;38.31;29.05
28628;BME280;15815;46.760;19.604;2023-09-30T09:35:24;100914.31;;;38.03;29.66
28628;BME280;15815;46.760;19.604;2023-09-30T09:38:06;100916.72;;;38.73;29.13
28628;BME280;15815;46.760;19.604;2023-09-30T09:40:36;100910.66;;;38.71;28.55
28628;BME280;15815;46.760;19.604;2023-09-30T09:43:03;100907.72;;;39.34;29.99
28628;BME280;15815;46.760;19.604;2023-09-30T09:45:28;100907.88;;;39.84;26.88
28628;BME280;15815;46.760;19.604;2023-09-30T09:47:54;100898.22;;;39.11;27.08
28628;BME280;15815;46.760;19.604;2023-09-30T09:50:21;100910.28;;;39.78;28.91
28628;BME280;15815;46.760;19.604;2023-09-30T09:52:49;100891.94;;;39.22;27.77
28628;BME280;15815;46.760;19.604;2023-09-30T09:55:18;100901.94;;;39.92;26.77
28628;BME280;15815;46.760;19.604;2023-09-30T09:57:45;100898.50;;;40.35;27.49
28628;BME280;15815;46.760;19.604;2023-09-30T10:00:22;100906.13;;;41.50;26.34
28628;BME280;15815;46.760;19.604;2023-09-30T10:02:48;100898.81;;;41.68;24.06
28628;BME280;15815;46.760;19.604;2023-09-30T10:05:15;100904.88;;;40.91;27.05
28628;BME280;15815;46.760;19.604;2023-09-30T10:10:28;100898.44;;;38.98;28.34
28628;BME280;15815;46.760;19.604;2023-09-30T10:12:55;100891.84;;;38.51;28.04
28628;BME280;15815;46.760;19.604;2023-09-30T10:18:06;100898.13;;;37.43;27.51
28628;BME280;15815;46.760;19.604;2023-09-30T10:20:34;100895.13;;;37.87;27.32
28628;BME280;15815;46.760;19.604;2023-09-30T10:25:51;100886.84;;;37.19;28.45
28628;BME280;15815;46.760;19.604;2023-09-30T10:36:34;100864.22;;;37.78;29.88
28628;BME280;15815;46.760;19.604;2023-09-30T10:39:01;100878.94;;;38.47;29.25
28628;BME280;15815;46.760;19.604;2023-09-30T10:46:49;100867.22;;;36.41;30.24
28628;BME280;15815;46.760;19.604;2023-09-30T10:49:15;100859.53;;;35.68;28.28
28628;BME280;15815;46.760;19.604;2023-09-30T10:51:41;100851.75;;;35.71;30.17
28628;BME280;15815;46.760;19.604;2023-09-30T10:54:07;100852.88;;;35.68;30.53
28628;BME280;15815;46.760;19.604;2023-09-30T10:56:33;100853.91;;;35.23;28.22
28628;BME280;15815;46.760;19.604;2023-09-30T10:58:59;100848.13;;;35.10;29.95
28628;BME280;15815;46.760;19.604;2023-09-30T11:01:24;100829.16;;;34.50;30.46
28628;BME280;15815;46.760;19.604;2023-09-30T11:03:55;100848.69;;;34.55;31.97
28628;BME280;15815;46.760;19.604;2023-09-30T11:06:23;100831.06;;;34.34;32.01
28628;BME280;15815;46.760;19.604;2023-09-30T11:09:00;100839.53;;;34.19;31.01
28628;BME280;15815;46.760;19.604;2023-09-30T11:11:36;100827.06;;;33.73;32.48
28628;BME280;15815;46.760;19.604;2023-09-30T11:14:28;100841.31;;;33.77;32.57
28628;BME280;15815;46.760;19.604;2023-09-30T11:16:55;100845.94;;;33.54;33.93
28628;BME280;15815;46.760;19.604;2023-09-30T11:19:22;100847.28;;;33.15;33.55
28628;BME280;15815;46.760;19.604;2023-09-30T11:21:49;100838.59;;;33.28;34.02
28628;BME280;15815;46.760;19.604;2023-09-30T11:24:15;100834.97;;;33.03;34.81
28628;BME280;15815;46.760;19.604;2023-09-30T11:26:40;100838.59;;;32.91;35.36
28628;BME280;15815;46.760;19.604;2023-09-30T11:29:15;100847.03;;;32.94;34.03
28628;BME280;15815;46.760;19.604;2023-09-30T11:31:41;100840.78;;;32.84;33.17
28628;BME280;15815;46.760;19.604;2023-09-30T11:34:07;100807.84;;;32.27;34.18
28628;BME280;15815;46.760;19.604;2023-09-30T11:36:39;100819.28;;;32.44;34.88
28628;BME280;15815;46.760;19.604;2023-09-30T11:39:05;100817.41;;;32.47;35.90
28628;BME280;15815;46.760;19.604;2023-09-30T11:41:39;100819.97;;;32.75;35.04
28628;BME280;15815;46.760;19.604;2023-09-30T11:44:10;100816.06;;;32.48;35.07
28628;BME280;15815;46.760;19.604;2023-09-30T11:46:48;100816.91;;;32.67;34.75
28628;BME280;15815;46.760;19.604;2023-09-30T11:51:52;100815.03;;;32.70;35.95
28628;BME280;15815;46.760;19.604;2023-09-30T11:54:17;100780.91;;;31.97;35.43
28628;BME280;15815;46.760;19.604;2023-09-30T11:56:43;100788.19;;;32.09;34.64
28628;BME280;15815;46.760;19.604;2023-09-30T11:59:09;100806.69;;;31.82;35.89
28628;BME280;15815;46.760;19.604;2023-09-30T12:01:34;100808.59;;;31.74;36.94
28628;BME280;15815;46.760;19.604;2023-09-30T12:04:00;100797.16;;;31.51;36.52
28628;BME280;15815;46.760;19.604;2023-09-30T12:06:25;100817.81;;;31.42;36.43
28628;BME280;15815;46.760;19.604;2023-09-30T12:08:51;100815.22;;;31.33;37.09
28628;BME280;15815;46.760;19.604;2023-09-30T12:11:17;100813.94;;;30.76;36.69
28628;BME280;15815;46.760;19.604;2023-09-30T12:13:42;100813.47;;;30.61;39.00
28628;BME280;15815;46.760;19.604;2023-09-30T12:16:08;100795.06;;;30.30;38.64
28628;BME280;15815;46.760;19.604;2023-09-30T12:18:33;100800.13;;;30.07;39.96
28628;BME280;15815;46.760;19.604;2023-09-30T12:20:59;100813.31;;;29.86;40.32
28628;BME280;15815;46.760;19.604;2023-09-30T12:23:27;100822.00;;;29.47;40.67
28628;BME280;15815;46.760;19.604;2023-09-30T12:25:53;100789.31;;;29.35;41.20
28628;BME280;15815;46.760;19.604;2023-09-30T12:28:18;100809.81;;;29.26;41.11
28628;BME280;15815;46.760;19.604;2023-09-30T12:30:44;100810.59;;;29.27;41.48
28628;BME280;15815;46.760;19.604;2023-09-30T12:33:09;100816.91;;;29.08;41.86
28628;BME280;15815;46.760;19.604;2023-09-30T12:35:35;100819.88;;;28.66;42.51
28628;BME280;15815;46.760;19.604;2023-09-30T12:38:03;100812.41;;;28.48;42.55
28628;BME280;15815;46.760;19.604;2023-09-30T12:40:29;100819.47;;;28.41;41.97
28628;BME280;15815;46.760;19.604;2023-09-30T12:42:55;100818.38;;;28.33;43.25
28628;BME280;15815;46.760;19.604;2023-09-30T12:45:20;100827.63;;;28.06;43.36
28628;BME280;15815;46.760;19.604;2023-09-30T12:47:46;100828.56;;;27.91;43.97
28628;BME280;15815;46.760;19.604;2023-09-30T12:50:11;100822.06;;;27.96;44.19
28628;BME280;15815;46.760;19.604;2023-09-30T12:52:41;100819.88;;;27.60;44.68
28628;BME280;15815;46.760;19.604;2023-09-30T12:55:07;100815.56;;;27.44;45.09
28628;BME280;15815;46.760;19.604;2023-09-30T12:57:32;100813.19;;;27.43;45.23
28628;BME280;15815;46.760;19.604;2023-09-30T12:59:58;100824.50;;;27.20;44.41
28628;BME280;15815;46.760;19.604;2023-09-30T13:02:23;100824.63;;;27.11;45.14
28628;BME280;15815;46.760;19.604;2023-09-30T13:04:49;100795.94;;;26.82;44.69